Accueil
METAR-TAF:

METAR-TAF

Aéroports :

Pigg's Peak, Swaziland

latitude: 25-58-04S, longitude: 31-15-03E, altitude: 1099 m

Observation

Le bulletin a été fait il y a 1 heure et 10 minutes, à 22:00 UTC
Vent 2 kt de sud-ouest
Température 14°C
Humidité 94%
Pression 1034 hPa

METAR: FDPP 202200Z AUTO 22002KT //// // ////// 14/13 Q1034

Heure: 01:10 (23:10 UTC)


TAF: absent

Observations et prévisions météorologiques de plus de 4000 aéroports (messages METAR et TAF).

Les stations disponibles sont représentées par des disques jaunes et rouges sur la carte.

Passer la souris dessus pour voir le nom de la station.

Cliquer dessus pour voir les observations et prévisions météorologiques.

Pour changer de carte: cliquez sur les boutons verts avec une croix noire pour zoomer, sur le bouton vert avec un tiret pour effectuer un zoom arrière, ou sur les flèches vertes pour les cartes adjacentes.


METAR-TAF: